Time;durP1;ratioP1;P1;durP2;ratioP2;P2;SDS_P1;SDS_P2;PMS_P1;PMS_P2;Temp;Humidity;BMP_temperature;BMP_pressure;BME280_temperature;BME280_humidity;BME280_pressure;Samples;Min_cycle;Max_cycle;Signal;HPM_P1;HPM_P2
2023/06/15 00:01:41;;;;;;;9.30;3.38;;;16.40;99.90;;;;;;5053619;28;20041;-63
2023/06/15 00:04:07;;;;;;;7.45;2.97;;;16.40;99.90;;;;;;5053837;28;20041;-63
2023/06/15 00:06:33;;;;;;;6.82;3.13;;;16.40;99.90;;;;;;5034939;28;20045;-63
2023/06/15 00:08:59;;;;;;;6.85;3.20;;;16.40;99.90;;;;;;5035698;28;20103;-63
2023/06/15 00:11:25;;;;;;;8.75;3.72;;;16.30;99.90;;;;;;5035839;28;20033;-63
2023/06/15 00:13:51;;;;;;;12.02;3.55;;;16.30;99.90;;;;;;5033565;28;20044;-63
2023/06/15 00:16:18;;;;;;;9.32;3.50;;;16.30;99.90;;;;;;5035636;28;20482;-63
2023/06/15 00:18:48;;;;;;;6.97;3.03;;;16.30;99.90;;;;;;5052521;28;20044;-63
2023/06/15 00:21:18;;;;;;;5.95;3.05;;;16.30;99.90;;;;;;5053157;28;20512;-63
2023/06/15 00:23:45;;;;;;;11.70;3.83;;;16.20;99.90;;;;;;5036029;28;20098;-63
2023/06/15 00:26:11;;;;;;;7.78;3.28;;;16.20;99.90;;;;;;5052657;28;20041;-63
2023/06/15 00:28:36;;;;;;;7.30;3.42;;;16.20;99.90;;;;;;5053194;28;20044;-63
2023/06/15 00:31:02;;;;;;;33.65;3.97;;;16.20;99.90;;;;;;5053266;28;20052;-63
2023/06/15 00:33:28;;;;;;;8.80;3.70;;;16.20;99.90;;;;;;5018356;28;20043;-63
2023/06/15 00:35:53;;;;;;;6.78;3.00;;;16.20;99.90;;;;;;5043103;28;20115;-63
2023/06/15 00:38:19;;;;;;;8.85;3.53;;;16.10;99.90;;;;;;5038834;28;20495;-63
2023/06/15 00:40:45;;;;;;;9.70;3.85;;;16.10;99.90;;;;;;5072165;28;20043;-63
2023/06/15 00:43:11;;;;;;;7.43;4.22;;;16.10;99.90;;;;;;5055612;28;20447;-63
2023/06/15 00:45:37;;;;;;;9.32;3.35;;;16.10;99.90;;;;;;5054956;28;20040;-63
2023/06/15 00:48:03;;;;;;;7.50;3.90;;;16.10;99.90;;;;;;5071907;28;20045;-63
2023/06/15 00:50:30;;;;;;;10.60;3.80;;;16.10;99.90;;;;;;5072560;28;20044;-63
2023/06/15 00:52:59;;;;;;;9.95;3.95;;;16.00;99.90;;;;;;5054815;28;20132;-63
2023/06/15 00:55:25;;;;;;;6.70;3.63;;;16.00;99.90;;;;;;5071717;28;20489;-63
2023/06/15 00:57:52;;;;;;;9.60;3.95;;;16.00;99.90;;;;;;5072619;28;20534;-63
2023/06/15 01:00:19;;;;;;;7.20;4.43;;;16.00;99.90;;;;;;5071516;28;20044;-63
2023/06/15 01:02:48;;;;;;;8.32;4.30;;;16.00;99.90;;;;;;5051626;28;20041;-63
2023/06/15 01:05:16;;;;;;;7.15;3.63;;;15.90;99.90;;;;;;5052368;28;20055;-63
2023/06/15 01:07:47;;;;;;;6.55;3.78;;;15.90;99.90;;;;;;5052491;28;20108;-63
2023/06/15 01:10:15;;;;;;;7.10;3.60;;;15.90;99.90;;;;;;5033873;28;20044;-63
2023/06/15 01:12:44;;;;;;;8.13;3.92;;;15.90;99.90;;;;;;5052474;28;20037;-63
2023/06/15 01:15:13;;;;;;;6.60;3.42;;;15.90;99.90;;;;;;5033964;28;20087;-63
2023/06/15 01:17:44;;;;;;;6.20;3.60;;;15.90;99.90;;;;;;5052365;28;20478;-63
2023/06/15 01:20:24;;;;;;;11.20;4.40;;;15.90;99.90;;;;;;5052456;28;20474;-63
2023/06/15 01:23:01;;;;;;;6.85;4.03;;;15.80;99.90;;;;;;5051764;28;20045;-63
2023/06/15 01:25:53;;;;;;;11.10;3.72;;;15.80;99.90;;;;;;5033859;28;20127;-63
2023/06/15 01:28:20;;;;;;;7.15;3.55;;;15.80;99.90;;;;;;5052006;28;20052;-63
2023/06/15 01:30:51;;;;;;;10.85;3.50;;;15.80;99.90;;;;;;5051300;28;20516;-63
2023/06/15 01:33:17;;;;;;;8.27;3.47;;;15.80;99.90;;;;;;5034358;28;20045;-63
2023/06/15 01:35:43;;;;;;;6.95;3.75;;;15.80;99.90;;;;;;5052074;28;20048;-63
2023/06/15 01:38:10;;;;;;;7.22;3.30;;;15.70;99.90;;;;;;5051467;28;20052;-63
2023/06/15 01:40:42;;;;;;;8.23;3.80;;;15.70;99.90;;;;;;5033912;28;20045;-63
2023/06/15 01:43:12;;;;;;;8.38;3.90;;;15.70;99.90;;;;;;5033632;28;20509;-63
2023/06/15 01:45:44;;;;;;;8.27;3.72;;;15.70;99.90;;;;;;5034563;28;20123;-62
2023/06/15 01:48:10;;;;;;;7.65;4.10;;;15.70;99.90;;;;;;5051933;28;20053;-63
2023/06/15 01:50:36;;;;;;;7.82;4.22;;;15.70;99.90;;;;;;5033177;28;20033;-63
2023/06/15 01:53:03;;;;;;;6.93;3.63;;;15.70;99.90;;;;;;5051530;28;20068;-63
2023/06/15 01:55:28;;;;;;;7.43;4.00;;;15.70;99.90;;;;;;5052025;28;20041;-63
2023/06/15 01:57:54;;;;;;;10.00;3.60;;;15.70;99.90;;;;;;5037295;28;20041;-63
2023/06/15 02:00:25;;;;;;;10.52;4.00;;;15.70;99.90;;;;;;5051816;28;20033;-63
2023/06/15 02:02:51;;;;;;;6.55;3.42;;;15.70;99.90;;;;;;5034075;28;20044;-63
2023/06/15 02:05:18;;;;;;;9.25;4.72;;;15.70;99.90;;;;;;5033279;28;20049;-63
2023/06/15 02:07:44;;;;;;;6.78;3.70;;;15.60;99.90;;;;;;5033804;28;20036;-63
2023/06/15 02:10:10;;;;;;;7.40;4.32;;;15.60;99.90;;;;;;5034149;28;20091;-63
2023/06/15 02:12:36;;;;;;;6.80;3.80;;;15.60;99.90;;;;;;5051025;28;20037;-63
2023/06/15 02:15:02;;;;;;;9.05;3.95;;;15.60;99.90;;;;;;5051654;28;20041;-63
2023/06/15 02:17:32;;;;;;;11.68;4.97;;;15.50;99.90;;;;;;5051262;28;20470;-63
2023/06/15 02:19:58;;;;;;;6.90;4.10;;;15.50;99.90;;;;;;5016451;28;20044;-63
2023/06/15 02:22:23;;;;;;;9.20;4.30;;;15.50;99.90;;;;;;5033752;28;20037;-63
2023/06/15 02:24:49;;;;;;;7.25;4.05;;;15.50;99.90;;;;;;5051827;28;20107;-63
2023/06/15 02:27:15;;;;;;;8.55;4.03;;;15.40;99.90;;;;;;5050947;28;20564;-63
2023/06/15 02:29:41;;;;;;;11.85;4.78;;;15.40;99.90;;;;;;5051450;28;20068;-63
2023/06/15 02:32:09;;;;;;;7.82;4.22;;;15.40;99.90;;;;;;5017450;28;20048;-63
2023/06/15 02:34:36;;;;;;;8.55;4.60;;;15.40;99.90;;;;;;5050583;28;20041;-63
2023/06/15 02:37:02;;;;;;;10.23;4.57;;;15.40;99.90;;;;;;5017919;28;20041;-63
2023/06/15 02:39:28;;;;;;;8.18;4.90;;;15.40;99.90;;;;;;5036515;28;20048;-63
2023/06/15 02:41:54;;;;;;;10.05;4.90;;;15.30;99.90;;;;;;5054947;28;20048;-63
2023/06/15 02:44:21;;;;;;;7.60;4.75;;;15.40;99.90;;;;;;5055172;28;20401;-63
2023/06/15 02:46:46;;;;;;;8.85;5.25;;;15.30;99.90;;;;;;5036695;28;20095;-63
2023/06/15 02:49:12;;;;;;;10.10;5.53;;;15.30;99.90;;;;;;5055152;28;20099;-63
2023/06/15 02:51:40;;;;;;;8.88;5.20;;;15.20;99.90;;;;;;5037174;28;20067;-63
2023/06/15 02:54:06;;;;;;;10.35;5.28;;;15.20;99.90;;;;;;5020214;28;20099;-63
2023/06/15 02:56:35;;;;;;;14.80;5.47;;;15.10;99.90;;;;;;5055082;28;20448;-63
2023/06/15 02:59:01;;;;;;;8.52;5.97;;;15.10;99.90;;;;;;5054914;28;20043;-63
2023/06/15 03:01:38;;;;;;;12.18;5.00;;;15.10;99.90;;;;;;5054028;28;20033;-63
2023/06/15 03:04:09;;;;;;;11.10;5.22;;;15.00;99.90;;;;;;5036878;28;20049;-63
2023/06/15 03:06:36;;;;;;;7.72;5.28;;;15.00;99.90;;;;;;5054680;28;20041;-63
2023/06/15 03:09:03;;;;;;;11.30;5.47;;;15.00;99.90;;;;;;5053773;28;20128;-63
2023/06/15 03:11:28;;;;;;;11.27;4.72;;;15.00;99.90;;;;;;5054659;28;20102;-63
2023/06/15 03:13:54;;;;;;;12.80;6.28;;;15.00;99.90;;;;;;5036661;28;20045;-63
2023/06/15 03:16:20;;;;;;;9.25;5.60;;;15.00;99.90;;;;;;5035810;28;20056;-63
2023/06/15 03:18:47;;;;;;;7.57;4.80;;;14.90;99.90;;;;;;5036633;28;20056;-63
2023/06/15 03:21:14;;;;;;;10.82;7.13;;;14.90;99.90;;;;;;5020264;28;20576;-63
2023/06/15 03:23:42;;;;;;;8.52;5.28;;;14.90;99.90;;;;;;5035846;28;20040;-63
2023/06/15 03:26:07;;;;;;;11.88;6.85;;;14.90;99.90;;;;;;5036733;28;20049;-63
2023/06/15 03:28:38;;;;;;;8.90;5.15;;;14.90;99.90;;;;;;5035785;28;20119;-63
2023/06/15 03:31:07;;;;;;;8.23;5.18;;;14.90;99.90;;;;;;5054119;28;20478;-63
2023/06/15 03:33:32;;;;;;;11.23;5.80;;;14.90;99.90;;;;;;5036142;28;20055;-63
2023/06/15 03:36:01;;;;;;;9.00;5.68;;;14.90;99.90;;;;;;5053446;28;20036;-63
2023/06/15 03:38:27;;;;;;;8.10;4.88;;;14.90;99.90;;;;;;5054075;28;20055;-63
2023/06/15 03:40:52;;;;;;;12.65;6.80;;;14.90;99.90;;;;;;5036143;28;20049;-63
2023/06/15 03:43:18;;;;;;;8.38;6.68;;;14.90;99.90;;;;;;5053161;28;20379;-63
2023/06/15 03:45:43;;;;;;;10.50;6.57;;;14.90;99.90;;;;;;5053780;28;20144;-63
2023/06/15 03:48:09;;;;;;;10.55;6.88;;;14.90;99.90;;;;;;5035964;28;20049;-63
2023/06/15 03:50:35;;;;;;;8.35;5.75;;;15.00;99.90;;;;;;5035271;28;20036;-63
2023/06/15 03:53:01;;;;;;;12.02;7.05;;;15.00;99.90;;;;;;5053782;28;20122;-63
2023/06/15 03:55:27;;;;;;;10.88;6.53;;;15.00;99.90;;;;;;5053905;28;20036;-63
2023/06/15 03:57:52;;;;;;;8.40;5.80;;;15.00;99.90;;;;;;5037878;28;20508;-63
2023/06/15 04:00:18;;;;;;;12.52;6.43;;;15.00;99.90;;;;;;5053421;28;20492;-63
2023/06/15 04:02:44;;;;;;;11.38;6.82;;;15.00;99.90;;;;;;5035801;28;20037;-63
2023/06/15 04:05:10;;;;;;;8.90;6.60;;;15.10;99.90;;;;;;5053293;28;20453;-63
2023/06/15 04:07:36;;;;;;;9.70;6.22;;;15.10;99.90;;;;;;5035588;28;20079;-63
2023/06/15 04:10:04;;;;;;;9.55;6.03;;;15.10;99.90;;;;;;5053489;28;20123;-63
2023/06/15 04:12:29;;;;;;;11.60;6.25;;;15.20;99.90;;;;;;5034655;28;20044;-63
2023/06/15 04:14:55;;;;;;;11.85;6.75;;;15.20;99.90;;;;;;5035747;28;20041;-63
2023/06/15 04:17:21;;;;;;;11.55;7.30;;;15.20;99.90;;;;;;5053292;28;20041;-63
2023/06/15 04:19:46;;;;;;;11.13;7.20;;;15.30;99.90;;;;;;5034809;28;20119;-63
2023/06/15 04:22:12;;;;;;;13.27;8.13;;;15.30;99.90;;;;;;5035646;28;20053;-63
2023/06/15 04:24:38;;;;;;;12.38;7.22;;;15.30;99.90;;;;;;5053514;28;20149;-63
2023/06/15 04:27:04;;;;;;;10.02;7.45;;;15.40;99.90;;;;;;5072077;28;20047;-63
2023/06/15 04:29:30;;;;;;;15.80;7.68;;;15.40;99.90;;;;;;5055433;28;20166;-63
2023/06/15 04:31:59;;;;;;;10.70;7.25;;;15.50;99.90;;;;;;5072488;28;20078;-63
2023/06/15 04:34:26;;;;;;;12.13;7.63;;;15.50;99.90;;;;;;5073147;28;20389;-63
2023/06/15 04:36:52;;;;;;;13.48;7.63;;;15.50;99.90;;;;;;5073120;28;20055;-63
2023/06/15 04:39:22;;;;;;;10.80;6.80;;;15.60;99.90;;;;;;5072163;28;20044;-63
2023/06/15 04:41:48;;;;;;;15.35;7.50;;;15.50;99.90;;;;;;5057349;28;20041;-63
2023/06/15 04:44:13;;;;;;;15.63;8.18;;;15.60;99.90;;;;;;5035043;28;20094;-63
2023/06/15 04:46:46;;;;;;;18.13;7.75;;;15.60;99.90;;;;;;5034429;28;20052;-63
2023/06/15 04:49:12;;;;;;;11.40;8.52;;;15.70;99.90;;;;;;5064737;28;20097;-63
2023/06/15 04:51:38;;;;;;;8.68;6.45;;;15.80;99.90;;;;;;5054837;28;20036;-63
2023/06/15 04:54:04;;;;;;;36.50;8.32;;;15.80;99.90;;;;;;5071816;28;20046;-63
2023/06/15 04:56:29;;;;;;;27.63;7.28;;;16.00;99.90;;;;;;5072414;28;20482;-63
2023/06/15 04:58:55;;;;;;;11.93;6.80;;;16.00;99.90;;;;;;5072490;28;20094;-63
2023/06/15 05:01:21;;;;;;;13.77;7.85;;;16.10;99.90;;;;;;5071246;28;20071;-63
2023/06/15 05:03:46;;;;;;;10.13;5.93;;;16.30;99.90;;;;;;5054669;28;20068;-63
2023/06/15 05:06:12;;;;;;;13.65;8.48;;;16.30;99.90;;;;;;5054952;28;20135;-63
2023/06/15 05:08:38;;;;;;;12.75;6.22;;;16.50;99.90;;;;;;5053844;28;20044;-63
2023/06/15 05:11:03;;;;;;;31.83;7.30;;;16.60;99.90;;;;;;5072281;28;20040;-63
2023/06/15 05:13:30;;;;;;;46.17;10.82;;;16.70;99.90;;;;;;5050464;28;20163;-63
2023/06/15 05:15:55;;;;;;;12.98;8.80;;;16.80;99.90;;;;;;5017284;28;20069;-63
2023/06/15 05:18:21;;;;;;;20.05;8.93;;;16.90;99.90;;;;;;5052379;28;20142;-63
2023/06/15 05:20:48;;;;;;;10.45;7.38;;;17.00;99.90;;;;;;5034710;28;20043;-63
2023/06/15 05:23:13;;;;;;;42.55;8.13;;;17.10;99.90;;;;;;5016913;28;20097;-63
2023/06/15 05:25:39;;;;;;;47.83;10.90;;;17.20;99.90;;;;;;5052603;28;20112;-63
2023/06/15 05:28:05;;;;;;;11.30;7.35;;;17.40;99.90;;;;;;5034586;28;20124;-63
2023/06/15 05:30:30;;;;;;;25.55;7.07;;;17.50;99.90;;;;;;5051815;28;20037;-63
2023/06/15 05:32:56;;;;;;;17.45;6.47;;;17.70;99.90;;;;;;5034193;28;20040;-63
2023/06/15 05:35:22;;;;;;;12.10;7.70;;;17.80;99.90;;;;;;5033773;28;20045;-63
2023/06/15 05:37:47;;;;;;;25.45;7.90;;;17.90;99.90;;;;;;5034174;28;20524;-63
2023/06/15 05:40:13;;;;;;;49.75;7.82;;;18.10;99.90;;;;;;5047380;28;20514;-63
2023/06/15 05:42:39;;;;;;;9.23;4.65;;;18.20;99.90;;;;;;5071704;28;20044;-63
2023/06/15 05:45:05;;;;;;;10.73;5.30;;;18.30;99.90;;;;;;5064678;28;20049;-63
2023/06/15 05:47:32;;;;;;;8.52;4.72;;;18.40;99.90;;;;;;5072013;28;20090;-63
2023/06/15 05:49:58;;;;;;;8.15;3.70;;;18.50;99.90;;;;;;5053135;28;20094;-63
2023/06/15 05:52:24;;;;;;;7.45;4.35;;;18.60;99.90;;;;;;5068981;28;20049;-64
2023/06/15 05:54:50;;;;;;;10.60;4.88;;;18.70;99.90;;;;;;5051339;28;20040;-64
2023/06/15 05:57:16;;;;;;;8.85;4.10;;;18.80;99.90;;;;;;5053250;28;20037;-63
2023/06/15 05:59:43;;;;;;;6.88;4.28;;;18.90;99.90;;;;;;5046643;28;20136;-63
2023/06/15 06:02:08;;;;;;;13.30;4.13;;;19.00;99.90;;;;;;5048598;28;20117;-63
2023/06/15 06:04:34;;;;;;;9.10;3.35;;;19.10;99.90;;;;;;5048602;28;20033;-63
2023/06/15 06:07:01;;;;;;;10.13;3.60;;;19.20;99.90;;;;;;5031454;28;20389;-63
2023/06/15 06:09:27;;;;;;;8.73;3.75;;;19.30;99.90;;;;;;5048156;28;20110;-63
2023/06/15 06:11:53;;;;;;;12.23;4.07;;;19.30;99.90;;;;;;5050925;28;20766;-63
2023/06/15 06:14:18;;;;;;;13.10;3.75;;;19.40;99.90;;;;;;5053606;28;20041;-63
2023/06/15 06:16:44;;;;;;;6.40;2.78;;;19.50;99.90;;;;;;5036528;28;20051;-63
2023/06/15 06:19:10;;;;;;;7.30;3.00;;;19.60;99.90;;;;;;5035253;28;20371;-63
2023/06/15 06:21:35;;;;;;;6.97;3.30;;;19.70;99.90;;;;;;5041596;28;20055;-57
2023/06/15 06:24:02;;;;;;;10.27;3.55;;;19.70;99.90;;;;;;5051015;28;20103;-58
2023/06/15 06:26:29;;;;;;;9.95;3.30;;;19.80;99.90;;;;;;5052049;28;20083;-57
2023/06/15 06:28:55;;;;;;;6.90;3.28;;;19.90;99.90;;;;;;5053086;28;20141;-58
2023/06/15 06:31:21;;;;;;;8.60;3.45;;;19.90;99.90;;;;;;5045886;28;20054;-58
2023/06/15 06:33:47;;;;;;;7.53;3.35;;;20.00;99.90;;;;;;5045551;28;20477;-59
2023/06/15 06:36:13;;;;;;;6.25;3.22;;;20.00;99.90;;;;;;5052476;28;20044;-59
2023/06/15 06:38:40;;;;;;;7.50;3.35;;;20.10;99.90;;;;;;5055090;28;20519;-58
2023/06/15 06:41:06;;;;;;;5.25;3.00;;;20.10;99.90;;;;;;5054668;28;20040;-59
2023/06/15 06:43:32;;;;;;;5.68;3.28;;;20.20;99.90;;;;;;5038135;28;20115;-58
2023/06/15 06:45:58;;;;;;;6.88;3.95;;;20.20;99.90;;;;;;5053498;28;20050;-58
2023/06/15 07:12:25;;;;;;;9.57;3.60;;;20.90;99.90;;;;;;5049584;28;20144;-58
2023/06/15 07:14:51;;;;;;;6.70;2.80;;;20.80;99.90;;;;;;5070491;28;20867;-58
2023/06/15 07:17:16;;;;;;;9.68;3.70;;;20.90;99.70;;;;;;5071866;28;20070;-58
2023/06/15 07:19:42;;;;;;;7.50;2.80;;;21.10;99.40;;;;;;5040103;28;20049;-58
2023/06/15 07:22:08;;;;;;;10.00;3.10;;;21.10;99.10;;;;;;5050912;28;20504;-59
2023/06/15 07:24:35;;;;;;;7.88;3.15;;;21.10;98.40;;;;;;5061466;28;20051;-58
2023/06/15 07:27:01;;;;;;;9.27;3.15;;;21.20;98.10;;;;;;5053756;28;20102;-58
2023/06/15 07:29:27;;;;;;;6.65;2.90;;;21.30;97.70;;;;;;5050266;28;20041;-58
2023/06/15 07:31:53;;;;;;;5.35;2.88;;;21.40;97.70;;;;;;5071351;28;20471;-58
2023/06/15 07:34:19;;;;;;;7.20;2.92;;;21.50;96.20;;;;;;5052498;28;20032;-58
2023/06/15 07:36:45;;;;;;;5.90;3.00;;;21.50;94.90;;;;;;5044711;28;20545;-58
2023/06/15 07:39:11;;;;;;;7.25;3.30;;;21.60;94.40;;;;;;5071747;28;20052;-58
2023/06/15 07:41:37;;;;;;;8.25;2.70;;;21.60;94.00;;;;;;5070290;28;20135;-58
2023/06/15 07:44:03;;;;;;;6.50;2.50;;;21.70;93.30;;;;;;5038852;28;20049;-58
2023/06/15 07:46:29;;;;;;;7.30;3.05;;;21.80;92.50;;;;;;5029361;28;20041;-58
2023/06/15 07:48:54;;;;;;;7.43;3.40;;;21.80;92.10;;;;;;5040028;28;20401;-58
2023/06/15 07:51:20;;;;;;;6.90;3.25;;;21.90;92.10;;;;;;5051717;28;20405;-58
2023/06/15 07:53:46;;;;;;;7.18;2.35;;;22.00;91.80;;;;;;5027706;28;20040;-58
2023/06/15 07:56:12;;;;;;;4.90;2.65;;;22.00;91.20;;;;;;5052677;28;20045;-64
2023/06/15 07:58:38;;;;;;;6.10;2.95;;;22.00;90.60;;;;;;5073320;28;20052;-65
2023/06/15 08:01:04;;;;;;;9.45;2.95;;;22.10;90.70;;;;;;5059652;28;20047;-64
2023/06/15 08:03:30;;;;;;;7.53;2.58;;;22.20;91.10;;;;;;5065225;28;20535;-64
2023/06/15 08:05:55;;;;;;;7.53;2.30;;;22.30;90.30;;;;;;5073687;28;20037;-64
2023/06/15 08:08:21;;;;;;;6.65;2.70;;;22.40;88.50;;;;;;5056003;28;20446;-64
2023/06/15 08:10:47;;;;;;;7.25;2.80;;;22.40;87.20;;;;;;5040444;28;20033;-64
2023/06/15 08:13:12;;;;;;;6.00;2.83;;;22.40;86.40;;;;;;5024450;28;20102;-64
2023/06/15 08:15:38;;;;;;;5.57;2.55;;;22.50;84.80;;;;;;5055803;28;20071;-63
2023/06/15 08:18:04;;;;;;;5.65;3.20;;;22.50;83.50;;;;;;5054669;28;20041;-64
2023/06/15 08:20:29;;;;;;;5.82;2.28;;;22.60;83.10;;;;;;5068089;28;20025;-64
2023/06/15 08:22:55;;;;;;;8.57;2.58;;;22.60;83.10;;;;;;5053771;28;20032;-64
2023/06/15 08:25:21;;;;;;;6.82;3.00;;;22.70;84.80;;;;;;5034572;28;20041;-64
2023/06/15 08:27:47;;;;;;;6.63;2.95;;;22.70;83.70;;;;;;5056044;28;20457;-64
2023/06/15 08:30:13;;;;;;;4.93;2.97;;;22.70;81.70;;;;;;5054987;28;20382;-64
2023/06/15 08:32:38;;;;;;;6.85;2.60;;;22.70;81.30;;;;;;5038106;28;20401;-63
2023/06/15 08:35:04;;;;;;;5.97;3.00;;;22.80;81.00;;;;;;5054212;28;20079;-63
2023/06/15 08:37:30;;;;;;;8.77;2.63;;;22.90;80.90;;;;;;5055172;28;20095;-64
2023/06/15 08:39:56;;;;;;;7.38;2.80;;;22.90;79.60;;;;;;5053152;28;20053;-63
2023/06/15 08:42:25;;;;;;;8.18;3.00;;;23.00;78.70;;;;;;5055031;28;20044;-62
2023/06/15 08:44:52;;;;;;;10.20;3.13;;;23.00;78.90;;;;;;5038853;28;20048;-63
2023/06/15 08:47:18;;;;;;;6.90;2.60;;;23.10;78.40;;;;;;5035741;28;20048;-63
2023/06/15 08:49:44;;;;;;;5.97;2.95;;;23.20;78.00;;;;;;5045531;28;20037;-62
2023/06/15 08:52:11;;;;;;;5.78;2.83;;;23.20;78.90;;;;;;5034505;28;20094;-63
2023/06/15 08:54:41;;;;;;;5.97;3.22;;;23.20;77.90;;;;;;5040317;28;20060;-64
2023/06/15 08:57:08;;;;;;;6.80;2.78;;;23.30;77.80;;;;;;5055182;28;20055;-64
2023/06/15 08:59:33;;;;;;;6.50;3.10;;;23.40;77.60;;;;;;5036875;28;20047;-64
2023/06/15 09:02:03;;;;;;;6.75;3.15;;;23.40;77.70;;;;;;5054249;28;20503;-64
2023/06/15 09:04:31;;;;;;;5.13;2.65;;;23.50;76.90;;;;;;5072006;28;20115;-64
2023/06/15 09:06:58;;;;;;;5.43;2.67;;;23.60;76.70;;;;;;5053459;28;20044;-64
2023/06/15 09:09:24;;;;;;;6.60;2.53;;;23.70;77.20;;;;;;5054360;28;20032;-64
2023/06/15 09:11:49;;;;;;;6.50;2.60;;;23.70;76.70;;;;;;5042179;28;20089;-64
2023/06/15 09:14:15;;;;;;;5.97;2.97;;;23.80;75.90;;;;;;5069963;28;20052;-64
2023/06/15 09:16:41;;;;;;;6.75;2.78;;;23.80;75.50;;;;;;5054156;28;20055;-65
2023/06/15 09:19:11;;;;;;;8.85;3.05;;;23.80;75.80;;;;;;5053895;28;20098;-65
2023/06/15 09:21:50;;;;;;;4.93;2.47;;;23.70;74.60;;;;;;5070557;28;20455;-65
2023/06/15 09:24:17;;;;;;;5.88;2.50;;;23.70;73.70;;;;;;5053904;28;20143;-65
2023/06/15 09:26:45;;;;;;;5.32;2.40;;;23.60;73.60;;;;;;5053223;28;20055;-64
2023/06/15 09:29:11;;;;;;;4.22;2.05;;;23.80;73.90;;;;;;5070820;28;20388;-65
2023/06/15 09:31:38;;;;;;;5.95;2.90;;;23.80;72.30;;;;;;5075858;28;20401;-65
2023/06/15 09:34:04;;;;;;;4.57;2.25;;;23.90;71.20;;;;;;5065158;28;20435;-64
2023/06/15 09:36:34;;;;;;;7.88;3.13;;;24.00;70.40;;;;;;5070814;28;20394;-64
2023/06/15 09:39:00;;;;;;;4.88;2.53;;;24.00;69.80;;;;;;5053895;28;20044;-64
2023/06/15 09:41:26;;;;;;;10.73;3.35;;;24.00;70.30;;;;;;5052573;28;20496;-64
2023/06/15 09:43:53;;;;;;;7.20;2.72;;;24.00;69.50;;;;;;5061265;28;20033;-63
2023/06/15 09:46:20;;;;;;;5.40;2.65;;;24.00;67.70;;;;;;5045273;28;20067;-63
2023/06/15 09:48:49;;;;;;;4.53;2.25;;;24.00;66.60;;;;;;5051147;28;20036;-64
2023/06/15 09:51:15;;;;;;;11.68;2.92;;;24.10;66.30;;;;;;5044540;28;20170;-64
2023/06/15 09:53:43;;;;;;;6.03;2.63;;;24.20;65.00;;;;;;5054052;28;20047;-64
2023/06/15 09:56:10;;;;;;;5.25;2.30;;;24.20;64.70;;;;;;5071455;28;20036;-64
2023/06/15 09:58:36;;;;;;;5.50;2.50;;;24.20;64.30;;;;;;5037974;28;20396;-64
2023/06/15 10:01:08;;;;;;;5.68;2.42;;;24.20;64.30;;;;;;5071449;28;20052;-64
2023/06/15 10:03:37;;;;;;;7.20;2.85;;;24.30;63.10;;;;;;5049845;28;20055;-64
2023/06/15 10:06:09;;;;;;;5.63;2.78;;;24.10;62.60;;;;;;5033993;28;20048;-64
2023/06/15 10:08:39;;;;;;;5.47;2.70;;;24.10;62.70;;;;;;5051627;28;20504;-64
2023/06/15 10:11:04;;;;;;;5.90;2.92;;;24.10;64.00;;;;;;5043399;28;20037;-64
2023/06/15 10:13:41;;;;;;;9.27;3.20;;;24.20;63.40;;;;;;5071354;28;20048;-64
2023/06/15 10:16:11;;;;;;;4.50;2.28;;;24.20;62.70;;;;;;5071690;28;20043;-63
2023/06/15 10:18:37;;;;;;;4.95;2.50;;;24.40;62.50;;;;;;5058050;28;20045;-64
2023/06/15 10:21:05;;;;;;;6.78;2.47;;;24.40;61.70;;;;;;5050333;28;20452;-58
2023/06/15 10:23:32;;;;;;;6.68;2.60;;;24.40;62.20;;;;;;5033247;28;20059;-58
2023/06/15 10:25:58;;;;;;;6.38;3.03;;;24.50;61.30;;;;;;5072999;28;20040;-58
2023/06/15 10:28:26;;;;;;;8.25;2.60;;;24.50;61.60;;;;;;5053589;28;20047;-58
2023/06/15 10:31:25;;;;;;;5.57;2.53;;;24.60;63.00;;;;;;5052878;28;20048;-58
2023/06/15 10:33:56;;;;;;;5.57;2.97;;;24.70;61.90;;;;;;5071743;28;20083;-58
2023/06/15 10:36:36;;;;;;;4.95;2.60;;;24.80;61.90;;;;;;5053416;28;20037;-58
2023/06/15 10:39:27;;;;;;;11.70;3.55;;;24.90;61.50;;;;;;5053355;28;20056;-58
2023/06/15 10:41:56;;;;;;;5.10;2.50;;;24.90;60.30;;;;;;5070474;28;20158;-58
2023/06/15 10:44:31;;;;;;;5.15;2.70;;;24.80;60.40;;;;;;5071381;28;20123;-58
2023/06/15 10:47:05;;;;;;;9.18;3.13;;;25.00;60.60;;;;;;5052749;28;20130;-58
2023/06/15 10:49:31;;;;;;;4.28;2.40;;;25.10;60.10;;;;;;5042743;28;20041;-58
2023/06/15 10:51:57;;;;;;;5.15;2.53;;;25.00;60.00;;;;;;5050806;28;20040;-58
2023/06/15 10:54:26;;;;;;;6.32;2.58;;;25.00;59.50;;;;;;5051295;28;20039;-58
2023/06/15 10:56:53;;;;;;;7.18;2.97;;;25.00;58.50;;;;;;5050703;28;20077;-59
2023/06/15 10:59:39;;;;;;;5.50;2.58;;;25.00;59.20;;;;;;5044362;28;20044;-58
2023/06/15 11:02:31;;;;;;;4.68;2.40;;;25.00;59.00;;;;;;5037523;28;20134;-58
2023/06/15 11:05:05;;;;;;;5.53;2.90;;;25.00;57.90;;;;;;5037034;28;20045;-64
2023/06/15 11:07:50;;;;;;;;;;;25.00;57.80;;;;;;5045961;28;20055;-64
2023/06/15 11:10:21;;;;;;;5.13;2.42;;;25.10;57.40;;;;;;5056047;28;19916;-64
2023/06/15 11:12:50;;;;;;;6.65;2.88;;;25.10;58.20;;;;;;5033881;28;20064;-64
2023/06/15 11:15:16;;;;;;;4.95;2.75;;;25.10;58.10;;;;;;5052501;28;20045;-64
2023/06/15 11:18:12;;;;;;;4.97;2.60;;;25.10;57.70;;;;;;5051929;28;20370;-64
2023/06/15 11:20:38;;;;;;;6.95;3.10;;;25.20;58.50;;;;;;5053386;28;20080;-64
2023/06/15 11:23:11;;;;;;;5.75;2.92;;;25.30;58.20;;;;;;5033607;28;20134;-64
2023/06/15 11:25:48;;;;;;;5.35;2.50;;;25.30;57.70;;;;;;5033743;28;20041;-64
2023/06/15 11:28:24;;;;;;;7.10;3.10;;;25.40;57.60;;;;;;5032966;28;20501;-64
2023/06/15 11:30:53;;;;;;;6.47;2.25;;;25.30;57.20;;;;;;5051565;28;20044;-64
2023/06/15 11:33:27;;;;;;;6.00;2.40;;;25.30;57.40;;;;;;5033715;28;20052;-64
2023/06/15 11:35:53;;;;;;;6.50;2.70;;;25.30;56.80;;;;;;5052986;28;20071;-65
2023/06/15 11:38:23;;;;;;;5.32;2.67;;;25.30;56.40;;;;;;5053533;28;20116;-63
2023/06/15 11:40:48;;;;;;;10.25;2.97;;;25.40;57.40;;;;;;5071571;28;20089;-64
2023/06/15 11:43:14;;;;;;;5.88;2.90;;;25.60;57.90;;;;;;5038309;28;20049;-64
2023/06/15 11:45:45;;;;;;;6.50;2.78;;;25.70;57.20;;;;;;5034037;28;20444;-64
2023/06/15 11:48:14;;;;;;;5.43;2.80;;;25.80;56.30;;;;;;5034709;28;20045;-64
2023/06/15 11:50:43;;;;;;;6.78;2.53;;;25.80;54.90;;;;;;5034145;28;20037;-64
2023/06/15 11:53:18;;;;;;;6.10;2.63;;;25.70;53.80;;;;;;5052191;28;20045;-64
2023/06/15 11:55:47;;;;;;;6.13;2.95;;;25.70;54.00;;;;;;5033321;28;20044;-64
2023/06/15 11:58:13;;;;;;;6.20;3.08;;;25.60;54.60;;;;;;5064403;28;20044;-64
2023/06/15 12:00:39;;;;;;;7.07;2.83;;;25.70;55.20;;;;;;5070060;28;20087;-64
2023/06/15 12:03:11;;;;;;;5.75;2.83;;;25.70;54.90;;;;;;5070630;28;20036;-64
2023/06/15 12:05:38;;;;;;;4.70;3.03;;;25.80;54.40;;;;;;5063481;28;20477;-64
2023/06/15 12:08:06;;;;;;;7.25;2.78;;;25.80;54.30;;;;;;5045924;28;20119;-64
2023/06/15 12:10:37;;;;;;;4.68;2.30;;;25.80;54.00;;;;;;5070534;28;20052;-64
2023/06/15 12:13:03;;;;;;;7.65;2.95;;;25.90;54.70;;;;;;5071246;28;20056;-66
2023/06/15 12:15:29;;;;;;;7.20;2.63;;;25.80;54.70;;;;;;5049386;28;20052;-66
2023/06/15 12:17:56;;;;;;;4.90;2.60;;;25.90;55.20;;;;;;5050256;28;20394;-65
2023/06/15 12:20:27;;;;;;;6.55;2.70;;;25.80;54.50;;;;;;5034410;28;20746;-66
2023/06/15 12:22:53;;;;;;;5.95;2.90;;;25.80;54.50;;;;;;5058672;28;20059;-64
2023/06/15 12:25:42;;;;;;;4.97;2.60;;;25.80;54.40;;;;;;5061321;28;20041;-66
2023/06/15 12:28:18;;;;;;;5.20;2.85;;;25.70;55.10;;;;;;5035742;28;20044;-66
2023/06/15 12:30:48;;;;;;;4.22;2.28;;;25.60;54.70;;;;;;5052474;28;20044;-65
2023/06/15 12:33:31;;;;;;;8.05;2.45;;;25.60;54.80;;;;;;5053358;28;20045;-66
2023/06/15 12:35:59;;;;;;;5.65;2.55;;;25.60;55.90;;;;;;5053273;28;20386;-66
2023/06/15 12:38:26;;;;;;;5.68;3.03;;;25.70;56.60;;;;;;5062529;28;20041;-66
2023/06/15 12:40:52;;;;;;;5.43;2.60;;;25.80;56.50;;;;;;5036218;28;20076;-65
2023/06/15 12:43:18;;;;;;;4.82;2.40;;;25.80;56.00;;;;;;5040284;28;20071;-66
2023/06/15 12:45:45;;;;;;;6.88;3.08;;;25.60;55.40;;;;;;5054230;28;20475;-66
2023/06/15 12:48:11;;;;;;;6.82;2.90;;;25.60;55.70;;;;;;5055400;28;20079;-66
2023/06/15 12:50:36;;;;;;;4.53;2.58;;;25.60;55.70;;;;;;5055013;28;20056;-65
2023/06/15 12:53:02;;;;;;;6.22;2.63;;;25.60;55.20;;;;;;5037521;28;20032;-66
2023/06/15 12:55:28;;;;;;;6.07;2.72;;;25.70;55.40;;;;;;5054808;28;20052;-65
2023/06/15 12:57:55;;;;;;;5.75;2.30;;;25.60;55.20;;;;;;5054818;28;20385;-65
2023/06/15 13:00:24;;;;;;;5.95;2.55;;;25.60;54.80;;;;;;5072082;28;20044;-65
2023/06/15 13:02:50;;;;;;;4.82;2.47;;;25.80;55.20;;;;;;5038478;28;20044;-65
2023/06/15 13:05:16;;;;;;;5.75;2.85;;;25.70;55.30;;;;;;5048499;28;20091;-65
2023/06/15 13:07:41;;;;;;;5.15;2.80;;;25.80;55.60;;;;;;5034732;28;20033;-65
2023/06/15 13:10:08;;;;;;;6.20;2.58;;;25.80;55.70;;;;;;5047644;28;20052;-65
2023/06/15 13:12:38;;;;;;;6.65;1.92;;;25.80;55.70;;;;;;5053537;28;20064;-65